createdAt,value
2018-06-03T00:00:06.325Z,44.53
2018-06-03T00:02:33.966Z,43.63
2018-06-03T00:05:00.327Z,45.37
2018-06-03T00:07:26.599Z,43.87
2018-06-03T00:09:52.881Z,42.17
2018-06-03T00:12:19.182Z,42.73
2018-06-03T00:14:45.468Z,41.77
2018-06-03T00:17:11.697Z,42.83
2018-06-03T00:19:37.982Z,42.30
2018-06-03T00:22:04.445Z,42.03
2018-06-03T00:24:30.741Z,42.07
2018-06-03T00:26:57.063Z,42.37
2018-06-03T00:29:23.388Z,42.83
2018-06-03T00:31:49.700Z,42.47
2018-06-03T00:34:16.034Z,40.63
2018-06-03T00:36:43.318Z,43.47
2018-06-03T00:39:09.752Z,43.60
2018-06-03T00:41:36.077Z,41.40
2018-06-03T00:44:02.438Z,42.53
2018-06-03T00:46:28.754Z,42.97
2018-06-03T00:48:55.065Z,42.67
2018-06-03T00:51:21.430Z,41.70
2018-06-03T00:53:47.747Z,43.73
2018-06-03T00:56:26.509Z,41.77
2018-06-03T00:58:52.789Z,43.43
2018-06-03T01:01:20.617Z,45.13
2018-06-03T01:03:46.923Z,43.43
2018-06-03T01:06:13.282Z,43.30
2018-06-03T01:08:40.702Z,43.67
2018-06-03T01:11:07.927Z,43.07
2018-06-03T01:13:34.246Z,43.13
2018-06-03T01:16:08.286Z,43.43
2018-06-03T01:18:35.402Z,43.90
2018-06-03T01:21:01.753Z,43.87
2018-06-03T01:23:28.062Z,42.30
2018-06-03T01:25:54.397Z,41.97
2018-06-03T01:28:20.718Z,43.03
2018-06-03T01:30:47.062Z,42.60
2018-06-03T01:33:13.379Z,44.37
2018-06-03T01:35:39.722Z,44.60
2018-06-03T01:38:07.578Z,41.60
2018-06-03T01:40:33.922Z,42.77
2018-06-03T01:43:00.231Z,45.00
2018-06-03T01:45:26.616Z,42.30
2018-06-03T01:47:53.670Z,41.13
2018-06-03T01:50:20.001Z,44.47
2018-06-03T01:52:46.319Z,42.80
2018-06-03T01:55:13.394Z,42.53
2018-06-03T01:57:39.700Z,43.63
2018-06-03T02:00:06.185Z,45.63
2018-06-03T02:02:33.315Z,41.73
2018-06-03T02:04:59.646Z,42.30
2018-06-03T02:07:26.502Z,44.73
2018-06-03T02:09:52.815Z,42.50
2018-06-03T02:12:19.157Z,42.17
2018-06-03T02:14:45.479Z,40.93
2018-06-03T02:17:11.827Z,41.77
2018-06-03T02:19:38.142Z,42.37
2018-06-03T02:22:04.501Z,40.30
2018-06-03T02:24:32.209Z,41.07
2018-06-03T02:26:58.555Z,42.40
2018-06-03T02:29:24.920Z,41.60
2018-06-03T02:31:51.270Z,40.50
2018-06-03T02:34:18.335Z,40.67
2018-06-03T02:36:44.718Z,40.17
2018-06-03T02:39:11.088Z,39.37
2018-06-03T02:41:38.179Z,38.97
2018-06-03T02:44:04.503Z,37.83
2018-06-03T02:46:30.858Z,38.50
2018-06-03T02:48:57.179Z,36.33
2018-06-03T02:51:23.567Z,36.47
2018-06-03T02:53:50.622Z,36.40
2018-06-03T02:56:16.968Z,36.90
2018-06-03T02:58:43.325Z,36.13
2018-06-03T03:01:09.676Z,36.97
2018-06-03T03:03:36.087Z,36.73
2018-06-03T03:06:02.444Z,34.70
2018-06-03T03:08:28.951Z,35.97
2018-06-03T03:10:55.292Z,35.90
2018-06-03T03:13:22.376Z,33.57
2018-06-03T03:15:48.704Z,38.57
2018-06-03T03:18:15.077Z,38.63
2018-06-03T03:20:41.406Z,35.50
2018-06-03T03:23:07.770Z,36.13
2018-06-03T03:25:34.846Z,33.83
2018-06-03T03:28:01.197Z,35.00
2018-06-03T03:30:27.511Z,32.37
2018-06-03T03:32:53.848Z,35.83
2018-06-03T03:35:23.792Z,34.77
2018-06-03T03:37:51.129Z,33.70
2018-06-03T03:40:17.437Z,32.47
2018-06-03T03:42:43.835Z,33.00
2018-06-03T03:45:10.156Z,32.87
2018-06-03T03:47:36.502Z,33.33
2018-06-03T03:50:02.844Z,32.13
2018-06-03T03:52:29.955Z,33.60
2018-06-03T03:54:56.261Z,34.13
2018-06-03T03:57:22.616Z,34.27
2018-06-03T03:59:48.947Z,34.73
2018-06-03T04:02:15.333Z,32.60
2018-06-03T04:04:41.643Z,32.00
2018-06-03T04:07:08.725Z,33.40
2018-06-03T04:09:35.572Z,33.70
2018-06-03T04:12:01.924Z,34.60
2018-06-03T04:14:28.263Z,35.73
2018-06-03T04:16:56.098Z,33.90
2018-06-03T04:20:01.413Z,37.27
2018-06-03T04:22:29.014Z,34.43
2018-06-03T04:24:56.590Z,34.20
2018-06-03T04:27:24.176Z,35.93
2018-06-03T04:29:51.764Z,34.37
2018-06-03T04:32:19.360Z,36.70
2018-06-03T04:34:46.919Z,36.37
2018-06-03T04:37:14.509Z,35.70
2018-06-03T04:39:42.049Z,36.00
2018-06-03T04:42:09.869Z,36.40
2018-06-03T04:44:37.429Z,33.87
2018-06-03T04:47:05.418Z,36.63
2018-06-03T04:49:32.962Z,36.77
2018-06-03T04:52:00.558Z,38.80
2018-06-03T04:54:28.086Z,35.43
2018-06-03T04:56:55.647Z,37.73
2018-06-03T04:59:23.225Z,40.20
2018-06-03T05:01:50.779Z,35.10
2018-06-03T05:04:18.361Z,36.43
2018-06-03T05:06:46.104Z,35.97
2018-06-03T05:09:13.697Z,34.13
2018-06-03T05:11:41.209Z,31.83
2018-06-03T05:14:08.762Z,31.93
2018-06-03T05:16:36.340Z,33.27
2018-06-03T05:19:03.942Z,30.20
2018-06-03T05:21:31.521Z,31.57
2018-06-03T05:23:59.093Z,32.43
2018-06-03T05:26:26.627Z,35.00
2018-06-03T05:28:54.222Z,32.63
2018-06-03T05:31:21.895Z,31.37
2018-06-03T05:33:49.476Z,34.50
2018-06-03T05:36:17.310Z,34.50
2018-06-03T05:38:44.941Z,35.33
2018-06-03T05:41:12.498Z,32.53
2018-06-03T05:43:40.082Z,35.87
2018-06-03T05:46:08.347Z,34.93
2018-06-03T05:48:35.915Z,33.40
2018-06-03T05:51:03.595Z,35.80
2018-06-03T05:53:31.160Z,35.00
2018-06-03T05:55:58.744Z,34.50
2018-06-03T05:58:26.313Z,37.07
2018-06-03T06:00:53.845Z,35.23
2018-06-03T06:03:21.423Z,34.20
2018-06-03T06:05:48.948Z,35.57
2018-06-03T06:08:16.519Z,33.50
2018-06-03T06:10:44.167Z,32.27
2018-06-03T06:13:11.762Z,37.47
2018-06-03T06:15:40.122Z,35.63
2018-06-03T06:18:07.702Z,32.00
2018-06-03T06:20:35.271Z,33.20
2018-06-03T06:23:02.935Z,32.67
2018-06-03T06:25:30.477Z,36.30
2018-06-03T06:27:58.082Z,33.23
2018-06-03T06:30:25.621Z,31.90
2018-06-03T06:32:53.193Z,31.70
2018-06-03T06:35:20.779Z,34.50
2018-06-03T06:37:48.367Z,32.00
2018-06-03T06:40:15.937Z,32.77
2018-06-03T06:42:43.555Z,32.93
2018-06-03T06:45:11.133Z,35.97
2018-06-03T06:47:38.676Z,36.93
2018-06-03T06:50:06.365Z,35.33
2018-06-03T06:52:33.910Z,35.00
2018-06-03T06:55:02.433Z,34.20
2018-06-03T06:57:29.973Z,32.53
2018-06-03T06:59:57.547Z,35.17
2018-06-03T07:02:25.118Z,35.23
2018-06-03T07:04:52.735Z,33.33
2018-06-03T07:07:20.280Z,39.10
2018-06-03T07:09:47.914Z,33.93
2018-06-03T07:12:15.505Z,34.77
2018-06-03T07:14:43.098Z,33.13
2018-06-03T07:17:10.657Z,33.37
2018-06-03T07:19:38.251Z,33.83
2018-06-03T07:22:05.830Z,31.20
2018-06-03T07:24:33.411Z,32.83
2018-06-03T07:27:00.937Z,31.43
2018-06-03T07:29:28.499Z,28.97
2018-06-03T07:31:56.080Z,31.23
2018-06-03T07:34:23.735Z,29.67
2018-06-03T07:36:51.334Z,27.30
2018-06-03T07:39:18.921Z,27.33
2018-06-03T07:41:46.523Z,27.63
2018-06-03T07:44:14.121Z,28.30
2018-06-03T07:46:41.697Z,26.27
2018-06-03T07:49:09.338Z,28.03
2018-06-03T07:51:36.973Z,26.70
2018-06-03T07:54:04.842Z,24.97
2018-06-03T07:56:32.393Z,26.90
2018-06-03T07:59:00.029Z,24.73
2018-06-03T08:01:28.222Z,26.87
2018-06-03T08:03:55.834Z,27.97
2018-06-03T08:06:23.451Z,24.87
2018-06-03T08:08:52.199Z,25.60
2018-06-03T08:11:19.942Z,26.50
2018-06-03T08:13:47.669Z,26.60
2018-06-03T08:16:15.403Z,25.77
2018-06-03T08:18:43.066Z,23.07
2018-06-03T08:21:10.597Z,23.27
2018-06-03T08:23:38.230Z,23.30
2018-06-03T08:26:05.754Z,23.17
2018-06-03T08:28:33.394Z,23.77
2018-06-03T08:31:01.157Z,25.07
2018-06-03T08:33:28.774Z,25.67
2018-06-03T08:35:56.371Z,23.80
2018-06-03T08:38:23.963Z,27.30
2018-06-03T08:40:51.542Z,28.90
2018-06-03T08:43:19.140Z,28.43
2018-06-03T08:45:46.758Z,24.60
2018-06-03T08:48:14.278Z,27.90
2018-06-03T08:50:41.859Z,27.10
2018-06-03T08:53:09.475Z,23.27
2018-06-03T08:55:38.009Z,22.50
2018-06-03T08:58:06.104Z,22.20
2018-06-03T09:00:33.636Z,21.20
2018-06-03T09:03:01.263Z,21.87
2018-06-03T09:05:28.790Z,21.27
2018-06-03T09:07:56.321Z,20.63
2018-06-03T09:10:23.885Z,20.47
2018-06-03T09:12:51.493Z,20.87
2018-06-03T09:15:19.095Z,21.83
2018-06-03T09:17:46.706Z,23.00
2018-06-03T09:20:14.310Z,21.07
2018-06-03T09:22:42.034Z,19.33
2018-06-03T09:25:09.624Z,19.00
2018-06-03T09:27:37.261Z,19.37
2018-06-03T09:30:04.842Z,17.95
2018-06-03T09:32:32.453Z,19.23
2018-06-03T09:35:00.060Z,20.57
2018-06-03T09:37:27.598Z,18.13
2018-06-03T09:39:55.193Z,17.37
2018-06-03T09:42:22.754Z,16.80
2018-06-03T09:44:50.295Z,16.07
2018-06-03T09:47:17.885Z,17.37
2018-06-03T09:49:45.434Z,18.23
2018-06-03T09:52:13.270Z,18.27
2018-06-03T09:54:40.913Z,17.50
2018-06-03T09:57:08.490Z,16.93
2018-06-03T09:59:36.242Z,14.80
2018-06-03T10:02:05.342Z,16.10
2018-06-03T10:04:34.316Z,17.47
2018-06-03T10:07:03.300Z,16.90
2018-06-03T10:09:33.627Z,17.10
2018-06-03T10:12:02.591Z,15.47
2018-06-03T10:14:31.433Z,14.30
2018-06-03T10:17:00.618Z,15.30
2018-06-03T10:19:29.010Z,16.00
2018-06-03T10:21:56.845Z,15.20
2018-06-03T10:24:24.573Z,17.00
2018-06-03T10:26:52.349Z,15.73
2018-06-03T10:29:20.544Z,16.20
2018-06-03T10:31:48.244Z,16.00
2018-06-03T10:34:15.874Z,15.83
2018-06-03T10:36:43.506Z,16.33
2018-06-03T10:39:11.158Z,15.83
2018-06-03T10:41:38.826Z,17.40
2018-06-03T10:44:06.428Z,14.47
2018-06-03T10:46:34.021Z,15.07
2018-06-03T10:49:01.603Z,13.23
2018-06-03T10:51:29.163Z,14.13
2018-06-03T10:53:56.920Z,12.57
2018-06-03T10:56:24.494Z,12.83
2018-06-03T10:58:52.047Z,11.63
2018-06-03T11:01:19.661Z,13.00
2018-06-03T11:03:47.245Z,12.40
2018-06-03T11:06:14.816Z,12.23
2018-06-03T11:08:42.707Z,14.83
2018-06-03T11:11:10.318Z,14.50
2018-06-03T11:13:37.882Z,14.13
2018-06-03T11:16:05.502Z,15.10
2018-06-03T11:18:33.136Z,13.30
2018-06-03T11:21:00.833Z,13.53
2018-06-03T11:23:28.416Z,14.20
2018-06-03T11:25:56.009Z,13.40
2018-06-03T11:28:23.588Z,12.10
2018-06-03T11:30:51.237Z,12.53
2018-06-03T11:33:18.801Z,13.50
2018-06-03T11:35:46.396Z,14.00
2018-06-03T11:38:13.958Z,12.57
2018-06-03T11:40:41.603Z,12.00
2018-06-03T11:43:09.130Z,12.13
2018-06-03T11:45:36.743Z,11.23
2018-06-03T11:48:04.298Z,12.03
2018-06-03T11:50:31.948Z,12.00
2018-06-03T11:52:59.581Z,12.83
2018-06-03T11:55:27.148Z,13.40
2018-06-03T11:58:35.855Z,13.20
2018-06-03T12:01:03.349Z,11.77
2018-06-03T12:03:31.007Z,13.40
2018-06-03T12:05:59.506Z,13.87
2018-06-03T12:08:27.107Z,14.97
2018-06-03T12:10:54.667Z,13.80
2018-06-03T12:13:22.987Z,13.87
2018-06-03T12:15:51.324Z,14.17
2018-06-03T12:18:19.740Z,14.60
2018-06-03T12:20:48.018Z,13.87
2018-06-03T12:23:16.391Z,14.67
2018-06-03T12:25:44.763Z,13.40
2018-06-03T12:28:13.149Z,14.37
2018-06-03T12:30:41.702Z,13.60
2018-06-03T12:33:09.905Z,14.10
2018-06-03T12:35:37.870Z,13.33
2018-06-03T12:38:06.269Z,13.20
2018-06-03T12:40:34.725Z,13.50
2018-06-03T12:43:02.798Z,12.77
2018-06-03T12:45:31.125Z,13.93
2018-06-03T12:47:59.420Z,13.83
2018-06-03T12:50:27.627Z,12.60
2018-06-03T12:52:55.992Z,12.90
2018-06-03T12:55:23.728Z,12.67
2018-06-03T12:57:52.393Z,13.67
2018-06-03T13:00:21.731Z,13.27
2018-06-03T13:02:50.921Z,13.27
2018-06-03T13:05:18.498Z,13.10
2018-06-03T13:07:46.121Z,11.87
2018-06-03T13:10:13.679Z,12.40
2018-06-03T13:12:41.274Z,12.17
2018-06-03T13:15:08.892Z,12.13
2018-06-03T13:17:36.479Z,13.50
2018-06-03T13:20:04.462Z,12.30
2018-06-03T13:22:32.057Z,12.30
2018-06-03T13:24:59.642Z,11.93
2018-06-03T13:27:27.806Z,11.77
2018-06-03T13:29:55.416Z,11.40
2018-06-03T13:32:22.973Z,13.63
2018-06-03T13:34:50.554Z,12.73
2018-06-03T13:37:18.351Z,12.67
2018-06-03T13:39:45.893Z,12.63
2018-06-03T13:42:13.449Z,14.30
2018-06-03T13:44:41.101Z,15.57
2018-06-03T13:47:08.749Z,14.60
2018-06-03T13:49:36.332Z,15.53
2018-06-03T13:52:04.814Z,13.17
2018-06-03T13:54:32.426Z,14.17
2018-06-03T13:56:59.960Z,14.33
2018-06-03T13:59:27.603Z,15.20
2018-06-03T14:01:55.216Z,15.20
2018-06-03T14:04:22.798Z,16.13
2018-06-03T14:06:50.345Z,14.97
2018-06-03T14:09:18.765Z,15.80
2018-06-03T14:11:46.358Z,14.73
2018-06-03T14:14:13.841Z,15.03
2018-06-03T14:16:41.465Z,13.50
2018-06-03T14:19:09.102Z,13.90
2018-06-03T14:21:36.655Z,13.97
2018-06-03T14:24:05.556Z,14.90
2018-06-03T14:26:33.151Z,16.73
2018-06-03T14:29:00.703Z,15.00
2018-06-03T14:31:28.238Z,14.93
2018-06-03T14:33:56.051Z,13.20
2018-06-03T14:36:24.430Z,13.47
2018-06-03T14:38:52.019Z,12.83
2018-06-03T14:41:19.541Z,12.47
2018-06-03T14:43:48.228Z,14.50
2018-06-03T14:46:16.142Z,13.93
2018-06-03T14:48:43.666Z,14.40
2018-06-03T14:51:11.284Z,12.97
2018-06-03T14:53:38.878Z,14.67
2018-06-03T14:56:06.475Z,13.20
2018-06-03T14:58:33.949Z,12.60
2018-06-03T15:01:02.439Z,14.87
2018-06-03T15:03:30.122Z,13.17
2018-06-03T15:05:57.702Z,14.43
2018-06-03T15:08:25.407Z,14.67
2018-06-03T15:10:53.053Z,14.83
2018-06-03T15:13:20.570Z,15.37
2018-06-03T15:15:48.150Z,14.90
2018-06-03T15:18:15.699Z,14.93
2018-06-03T15:20:43.328Z,14.30
2018-06-03T15:23:10.902Z,16.23
2018-06-03T15:25:38.486Z,14.77
2018-06-03T15:28:06.118Z,17.30
2018-06-03T15:30:33.694Z,15.77
2018-06-03T15:33:01.275Z,16.50
2018-06-03T15:35:28.855Z,17.33
2018-06-03T15:37:56.466Z,15.43
2018-06-03T15:40:24.004Z,15.20
2018-06-03T15:42:51.622Z,13.33
2018-06-03T15:45:19.216Z,13.17
2018-06-03T15:47:46.816Z,14.50
2018-06-03T15:50:14.326Z,14.27
2018-06-03T15:52:41.882Z,14.23
2018-06-03T15:55:09.470Z,15.23
2018-06-03T15:57:36.978Z,14.33
2018-06-03T16:00:05.831Z,14.00
2018-06-03T16:02:33.373Z,13.80
2018-06-03T16:05:01.022Z,13.30
2018-06-03T16:07:28.531Z,15.53
2018-06-03T16:09:56.146Z,14.50
2018-06-03T16:12:23.751Z,14.23
2018-06-03T16:14:51.263Z,13.70
2018-06-03T16:17:19.391Z,16.60
2018-06-03T16:19:46.933Z,14.43
2018-06-03T16:22:14.580Z,14.27
2018-06-03T16:24:42.121Z,11.83
2018-06-03T16:27:09.720Z,13.67
2018-06-03T16:29:37.273Z,13.17
2018-06-03T16:32:04.986Z,10.87
2018-06-03T16:34:33.376Z,14.10
2018-06-03T16:37:00.974Z,13.20
2018-06-03T16:39:28.546Z,12.30
2018-06-03T16:41:56.130Z,12.57
2018-06-03T16:44:23.735Z,12.73
2018-06-03T16:46:51.395Z,13.00
2018-06-03T16:49:18.958Z,13.30
2018-06-03T16:51:46.614Z,13.87
2018-06-03T16:54:14.232Z,12.43
2018-06-03T16:56:41.749Z,12.73
2018-06-03T16:59:09.364Z,12.13
2018-06-03T17:01:36.953Z,12.77
2018-06-03T17:04:04.767Z,12.23
2018-06-03T17:06:32.346Z,11.97
2018-06-03T17:09:01.377Z,10.80
2018-06-03T17:11:28.986Z,10.60
2018-06-03T17:13:56.499Z,9.47
2018-06-03T17:16:24.063Z,11.30
2018-06-03T17:18:51.704Z,9.93
2018-06-03T17:21:19.291Z,10.37
2018-06-03T17:23:46.818Z,11.40
2018-06-03T17:26:14.333Z,11.30
2018-06-03T17:28:41.933Z,9.67
2018-06-03T17:31:09.465Z,10.20
2018-06-03T17:33:37.014Z,11.20
2018-06-03T17:36:04.800Z,11.20
2018-06-03T17:38:32.293Z,9.83
2018-06-03T17:41:00.388Z,10.83
2018-06-03T17:43:28.004Z,9.60
2018-06-03T17:45:56.145Z,9.30
2018-06-03T17:48:23.758Z,9.97
2018-06-03T17:50:51.345Z,9.80
2018-06-03T17:53:19.387Z,10.70
2018-06-03T17:55:46.969Z,8.63
2018-06-03T17:58:14.518Z,7.83
2018-06-03T18:00:42.122Z,8.73
2018-06-03T18:03:10.417Z,7.83
2018-06-03T18:05:38.000Z,7.00
2018-06-03T18:08:05.574Z,7.23
2018-06-03T18:10:33.123Z,7.77
2018-06-03T18:13:00.639Z,8.03
2018-06-03T18:15:28.210Z,8.13
2018-06-03T18:17:55.750Z,8.47
2018-06-03T18:20:23.293Z,8.53
2018-06-03T18:22:50.819Z,8.40
2018-06-03T18:25:18.361Z,7.97
2018-06-03T18:27:45.859Z,8.13
2018-06-03T18:30:13.419Z,6.73
2018-06-03T18:32:40.934Z,8.93
2018-06-03T18:35:08.494Z,7.67
2018-06-03T18:37:36.039Z,8.30
2018-06-03T18:40:03.613Z,8.63
2018-06-03T18:42:31.976Z,9.80
2018-06-03T18:44:59.894Z,9.53
2018-06-03T18:47:27.468Z,9.73
2018-06-03T18:49:55.013Z,9.90
2018-06-03T18:52:22.522Z,9.67
2018-06-03T18:54:50.142Z,9.33
2018-06-03T18:57:17.685Z,10.03
2018-06-03T18:59:45.292Z,9.20
2018-06-03T19:02:12.798Z,8.80
2018-06-03T19:04:40.372Z,9.03
2018-06-03T19:07:07.865Z,7.93
2018-06-03T19:09:35.534Z,8.43
2018-06-03T19:12:03.809Z,10.27
2018-06-03T19:14:31.392Z,9.30
2018-06-03T19:16:58.963Z,8.30
2018-06-03T19:19:26.671Z,8.67
2018-06-03T19:21:54.270Z,8.00
2018-06-03T19:24:21.914Z,9.03
2018-06-03T19:26:50.066Z,8.47
2018-06-03T19:29:17.657Z,8.17
2018-06-03T19:31:45.166Z,8.63
2018-06-03T19:34:12.684Z,8.30
2018-06-03T19:36:40.246Z,8.80
2018-06-03T19:39:08.282Z,9.30
2018-06-03T19:41:36.325Z,9.17
2018-06-03T19:44:03.880Z,9.77
2018-06-03T19:46:31.396Z,9.23
2018-06-03T19:48:58.982Z,9.63
2018-06-03T19:51:26.716Z,9.40
2018-06-03T19:53:54.296Z,9.13
2018-06-03T19:56:21.819Z,9.43
2018-06-03T19:58:49.379Z,9.43
2018-06-03T20:01:17.966Z,10.10
2018-06-03T20:03:45.539Z,10.40
2018-06-03T20:06:13.122Z,9.00
2018-06-03T20:08:40.959Z,9.50
2018-06-03T20:11:08.498Z,9.77
2018-06-03T20:13:36.005Z,9.83
2018-06-03T20:16:03.585Z,10.10
2018-06-03T20:18:31.168Z,9.87
2018-06-03T20:20:58.687Z,8.97
2018-06-03T20:23:26.257Z,9.80
2018-06-03T20:25:54.055Z,9.37
2018-06-03T20:28:21.643Z,10.10
2018-06-03T20:30:49.377Z,10.07
2018-06-03T20:33:16.953Z,10.00
2018-06-03T20:35:44.525Z,9.83
2018-06-03T20:38:12.025Z,10.23
2018-06-03T20:40:39.588Z,10.10
2018-06-03T20:43:07.207Z,10.23
2018-06-03T20:45:34.766Z,10.60
2018-06-03T20:48:02.371Z,10.40
2018-06-03T20:50:29.920Z,10.50
2018-06-03T20:52:57.475Z,9.67
2018-06-03T20:55:25.017Z,10.57
2018-06-03T20:57:52.516Z,11.40
2018-06-03T21:00:20.040Z,11.13
2018-06-03T21:02:47.599Z,10.80
2018-06-03T21:05:15.301Z,10.60
2018-06-03T21:07:42.876Z,11.17
2018-06-03T21:10:10.526Z,11.40
2018-06-03T21:12:38.090Z,11.80
2018-06-03T21:15:05.641Z,11.77
2018-06-03T21:17:33.204Z,12.00
2018-06-03T21:20:00.759Z,12.27
2018-06-03T21:22:28.335Z,11.63
2018-06-03T21:24:55.845Z,12.20
2018-06-03T21:27:23.330Z,13.00
2018-06-03T21:29:50.946Z,11.73
2018-06-03T21:32:18.446Z,12.00
2018-06-03T21:34:47.303Z,12.00
2018-06-03T21:37:14.804Z,11.70
2018-06-03T21:39:42.363Z,12.37
2018-06-03T21:42:09.941Z,14.17
2018-06-03T21:44:37.574Z,12.77
2018-06-03T21:47:05.115Z,12.53
2018-06-03T21:49:32.642Z,13.20
2018-06-03T21:52:00.208Z,12.70
2018-06-03T21:54:27.723Z,12.83
2018-06-03T21:56:55.230Z,12.13
2018-06-03T21:59:22.821Z,12.27
2018-06-03T22:01:50.336Z,13.10
2018-06-03T22:04:17.905Z,12.53
2018-06-03T22:06:45.502Z,12.67
2018-06-03T22:09:13.119Z,12.80
2018-06-03T22:11:40.638Z,14.43
2018-06-03T22:14:08.144Z,13.47
2018-06-03T22:16:35.699Z,14.17
2018-06-03T22:19:03.210Z,14.53
2018-06-03T22:21:30.855Z,13.03
2018-06-03T22:23:58.516Z,12.30
2018-06-03T22:26:26.054Z,13.73
2018-06-03T22:28:53.584Z,13.80
2018-06-03T22:31:21.300Z,14.50
2018-06-03T22:33:48.854Z,13.53
2018-06-03T22:36:16.624Z,15.20
2018-06-03T22:38:44.175Z,14.40
2018-06-03T22:41:11.719Z,13.93
2018-06-03T22:43:39.253Z,13.60
2018-06-03T22:46:06.772Z,13.43
2018-06-03T22:48:34.376Z,13.30
2018-06-03T22:51:01.902Z,13.83
2018-06-03T22:53:29.407Z,14.27
2018-06-03T22:55:56.979Z,14.47
2018-06-03T22:58:24.499Z,15.70
2018-06-03T23:00:52.033Z,14.60
2018-06-03T23:03:19.622Z,14.40
2018-06-03T23:05:47.220Z,12.73
2018-06-03T23:08:14.846Z,13.83
2018-06-03T23:10:42.390Z,14.13
2018-06-03T23:13:09.989Z,14.77
2018-06-03T23:15:37.550Z,13.30
2018-06-03T23:18:06.181Z,12.87
2018-06-03T23:20:33.770Z,13.30
2018-06-03T23:23:01.354Z,15.20
2018-06-03T23:25:28.946Z,14.50
2018-06-03T23:27:56.501Z,13.60
2018-06-03T23:30:24.135Z,12.67
2018-06-03T23:32:52.516Z,15.63
2018-06-03T23:35:20.109Z,15.27
2018-06-03T23:37:47.946Z,16.57
2018-06-03T23:40:15.913Z,16.23
2018-06-03T23:42:44.083Z,16.80
2018-06-03T23:45:12.057Z,17.57
2018-06-03T23:47:39.924Z,17.43
2018-06-03T23:50:08.427Z,16.60
2018-06-03T23:52:36.337Z,16.97
2018-06-03T23:55:04.187Z,17.30
2018-06-03T23:57:32.717Z,16.43
